sensor_id;sensor_type;location;lat;lon;timestamp;P1;durP1;ratioP1;P2;durP2;ratioP2
15192;SDS011;7697;51.630;7.484;2023-11-18T00:02:57;17.53;;;14.03;;
15192;SDS011;7697;51.630;7.484;2023-11-18T00:07:59;21.67;;;14.73;;
15192;SDS011;7697;51.630;7.484;2023-11-18T00:13:03;20.20;;;14.47;;
15192;SDS011;7697;51.630;7.484;2023-11-18T00:18:05;21.43;;;15.60;;
15192;SDS011;7697;51.630;7.484;2023-11-18T00:23:07;23.17;;;16.30;;
15192;SDS011;7697;51.630;7.484;2023-11-18T00:28:10;24.17;;;16.20;;
15192;SDS011;7697;51.630;7.484;2023-11-18T00:33:12;25.03;;;15.67;;
15192;SDS011;7697;51.630;7.484;2023-11-18T00:38:14;25.90;;;16.50;;
15192;SDS011;7697;51.630;7.484;2023-11-18T00:43:17;23.03;;;15.33;;
15192;SDS011;7697;51.630;7.484;2023-11-18T00:48:19;24.10;;;16.07;;
15192;SDS011;7697;51.630;7.484;2023-11-18T00:53:21;22.53;;;14.17;;
15192;SDS011;7697;51.630;7.484;2023-11-18T00:58:24;20.53;;;14.40;;
15192;SDS011;7697;51.630;7.484;2023-11-18T01:03:25;20.73;;;13.70;;
15192;SDS011;7697;51.630;7.484;2023-11-18T01:08:28;23.27;;;16.13;;
15192;SDS011;7697;51.630;7.484;2023-11-18T01:13:31;23.70;;;15.67;;
15192;SDS011;7697;51.630;7.484;2023-11-18T01:18:33;26.00;;;16.00;;
15192;SDS011;7697;51.630;7.484;2023-11-18T01:23:34;24.97;;;15.33;;
15192;SDS011;7697;51.630;7.484;2023-11-18T01:28:37;19.60;;;13.70;;
15192;SDS011;7697;51.630;7.484;2023-11-18T01:33:42;21.47;;;13.33;;
15192;SDS011;7697;51.630;7.484;2023-11-18T01:38:45;18.60;;;12.87;;
15192;SDS011;7697;51.630;7.484;2023-11-18T01:43:48;18.80;;;11.90;;
15192;SDS011;7697;51.630;7.484;2023-11-18T01:48:50;19.23;;;11.77;;
15192;SDS011;7697;51.630;7.484;2023-11-18T01:53:52;19.90;;;12.20;;
15192;SDS011;7697;51.630;7.484;2023-11-18T01:58:57;17.50;;;11.90;;
15192;SDS011;7697;51.630;7.484;2023-11-18T02:03:59;18.73;;;12.33;;
15192;SDS011;7697;51.630;7.484;2023-11-18T02:09:01;18.50;;;11.80;;
15192;SDS011;7697;51.630;7.484;2023-11-18T02:14:04;17.00;;;11.00;;
15192;SDS011;7697;51.630;7.484;2023-11-18T02:19:15;17.40;;;11.93;;
15192;SDS011;7697;51.630;7.484;2023-11-18T02:24:24;18.10;;;11.37;;
15192;SDS011;7697;51.630;7.484;2023-11-18T02:29:33;20.27;;;12.30;;
15192;SDS011;7697;51.630;7.484;2023-11-18T02:34:38;24.70;;;14.77;;
15192;SDS011;7697;51.630;7.484;2023-11-18T02:39:45;20.43;;;12.20;;
15192;SDS011;7697;51.630;7.484;2023-11-18T02:44:55;19.83;;;12.37;;
15192;SDS011;7697;51.630;7.484;2023-11-18T02:50:00;20.13;;;12.27;;
15192;SDS011;7697;51.630;7.484;2023-11-18T02:55:07;20.00;;;13.13;;
15192;SDS011;7697;51.630;7.484;2023-11-18T03:00:11;19.13;;;12.50;;
15192;SDS011;7697;51.630;7.484;2023-11-18T03:05:18;16.40;;;10.17;;
15192;SDS011;7697;51.630;7.484;2023-11-18T03:10:21;15.93;;;10.13;;
15192;SDS011;7697;51.630;7.484;2023-11-18T03:15:24;14.63;;;9.70;;
15192;SDS011;7697;51.630;7.484;2023-11-18T03:20:27;17.00;;;10.57;;
15192;SDS011;7697;51.630;7.484;2023-11-18T03:25:29;18.23;;;11.97;;
15192;SDS011;7697;51.630;7.484;2023-11-18T03:30:32;22.37;;;12.63;;
15192;SDS011;7697;51.630;7.484;2023-11-18T03:35:35;17.93;;;11.53;;
15192;SDS011;7697;51.630;7.484;2023-11-18T03:40:37;17.10;;;11.60;;
15192;SDS011;7697;51.630;7.484;2023-11-18T03:45:40;17.40;;;11.50;;
15192;SDS011;7697;51.630;7.484;2023-11-18T03:50:42;17.67;;;10.80;;
15192;SDS011;7697;51.630;7.484;2023-11-18T03:55:44;14.83;;;9.73;;
15192;SDS011;7697;51.630;7.484;2023-11-18T04:00:47;14.90;;;9.97;;
15192;SDS011;7697;51.630;7.484;2023-11-18T04:05:49;15.37;;;10.17;;
15192;SDS011;7697;51.630;7.484;2023-11-18T04:10:50;15.40;;;10.07;;
15192;SDS011;7697;51.630;7.484;2023-11-18T04:15:54;14.40;;;9.70;;
15192;SDS011;7697;51.630;7.484;2023-11-18T04:20:55;16.63;;;11.17;;
15192;SDS011;7697;51.630;7.484;2023-11-18T04:25:58;15.40;;;10.43;;
15192;SDS011;7697;51.630;7.484;2023-11-18T04:31:01;16.93;;;11.17;;
15192;SDS011;7697;51.630;7.484;2023-11-18T04:36:05;14.73;;;10.27;;
15192;SDS011;7697;51.630;7.484;2023-11-18T04:41:10;17.47;;;11.20;;
15192;SDS011;7697;51.630;7.484;2023-11-18T04:46:13;19.83;;;12.30;;
15192;SDS011;7697;51.630;7.484;2023-11-18T04:51:15;19.07;;;11.93;;
15192;SDS011;7697;51.630;7.484;2023-11-18T04:56:17;19.97;;;11.93;;
15192;SDS011;7697;51.630;7.484;2023-11-18T05:01:21;17.80;;;11.70;;
15192;SDS011;7697;51.630;7.484;2023-11-18T05:06:23;15.20;;;10.57;;
15192;SDS011;7697;51.630;7.484;2023-11-18T05:11:26;18.50;;;10.93;;
15192;SDS011;7697;51.630;7.484;2023-11-18T05:16:29;16.77;;;10.50;;
15192;SDS011;7697;51.630;7.484;2023-11-18T05:21:30;15.00;;;9.80;;
15192;SDS011;7697;51.630;7.484;2023-11-18T05:26:32;15.03;;;9.97;;
15192;SDS011;7697;51.630;7.484;2023-11-18T05:31:36;14.37;;;9.77;;
15192;SDS011;7697;51.630;7.484;2023-11-18T05:36:38;16.00;;;10.97;;
15192;SDS011;7697;51.630;7.484;2023-11-18T05:41:40;17.53;;;11.27;;
15192;SDS011;7697;51.630;7.484;2023-11-18T05:46:47;15.40;;;10.13;;
15192;SDS011;7697;51.630;7.484;2023-11-18T05:51:51;12.50;;;8.87;;
15192;SDS011;7697;51.630;7.484;2023-11-18T05:56:53;14.13;;;9.37;;
15192;SDS011;7697;51.630;7.484;2023-11-18T06:01:56;13.37;;;9.07;;
15192;SDS011;7697;51.630;7.484;2023-11-18T06:06:58;13.10;;;9.40;;
15192;SDS011;7697;51.630;7.484;2023-11-18T06:11:59;13.53;;;9.37;;
15192;SDS011;7697;51.630;7.484;2023-11-18T06:17:03;11.63;;;8.30;;
15192;SDS011;7697;51.630;7.484;2023-11-18T06:22:08;14.37;;;9.93;;
15192;SDS011;7697;51.630;7.484;2023-11-18T06:27:10;14.17;;;9.43;;
15192;SDS011;7697;51.630;7.484;2023-11-18T06:32:14;13.27;;;9.27;;
15192;SDS011;7697;51.630;7.484;2023-11-18T06:37:16;16.87;;;11.40;;
15192;SDS011;7697;51.630;7.484;2023-11-18T06:42:18;14.27;;;9.97;;
15192;SDS011;7697;51.630;7.484;2023-11-18T06:47:21;15.97;;;10.77;;
15192;SDS011;7697;51.630;7.484;2023-11-18T06:52:23;14.93;;;10.17;;
15192;SDS011;7697;51.630;7.484;2023-11-18T06:57:26;16.53;;;10.97;;
15192;SDS011;7697;51.630;7.484;2023-11-18T07:02:30;17.23;;;11.47;;
15192;SDS011;7697;51.630;7.484;2023-11-18T07:07:32;15.37;;;11.00;;
15192;SDS011;7697;51.630;7.484;2023-11-18T07:12:33;18.07;;;10.80;;
15192;SDS011;7697;51.630;7.484;2023-11-18T07:17:39;15.57;;;11.20;;
15192;SDS011;7697;51.630;7.484;2023-11-18T07:22:41;14.33;;;10.87;;
15192;SDS011;7697;51.630;7.484;2023-11-18T07:27:43;15.27;;;10.67;;
15192;SDS011;7697;51.630;7.484;2023-11-18T07:32:46;16.77;;;12.20;;
15192;SDS011;7697;51.630;7.484;2023-11-18T07:37:48;15.80;;;10.77;;
15192;SDS011;7697;51.630;7.484;2023-11-18T07:42:49;17.30;;;11.43;;
15192;SDS011;7697;51.630;7.484;2023-11-18T07:47:53;15.27;;;10.57;;
15192;SDS011;7697;51.630;7.484;2023-11-18T07:52:54;16.33;;;11.60;;
15192;SDS011;7697;51.630;7.484;2023-11-18T07:57:57;17.80;;;12.33;;
15192;SDS011;7697;51.630;7.484;2023-11-18T08:03:00;14.53;;;10.77;;
15192;SDS011;7697;51.630;7.484;2023-11-18T08:08:02;17.23;;;11.67;;
15192;SDS011;7697;51.630;7.484;2023-11-18T08:13:04;16.97;;;11.43;;
15192;SDS011;7697;51.630;7.484;2023-11-18T08:18:08;15.13;;;10.97;;
15192;SDS011;7697;51.630;7.484;2023-11-18T08:23:11;14.33;;;10.47;;
15192;SDS011;7697;51.630;7.484;2023-11-18T08:28:12;15.07;;;11.60;;
15192;SDS011;7697;51.630;7.484;2023-11-18T08:33:16;14.30;;;11.30;;
15192;SDS011;7697;51.630;7.484;2023-11-18T08:38:18;14.07;;;10.63;;
15192;SDS011;7697;51.630;7.484;2023-11-18T08:43:20;16.67;;;12.17;;
15192;SDS011;7697;51.630;7.484;2023-11-18T08:48:23;18.43;;;13.70;;
15192;SDS011;7697;51.630;7.484;2023-11-18T08:53:26;18.00;;;13.67;;
15192;SDS011;7697;51.630;7.484;2023-11-18T08:58:28;17.30;;;12.53;;
15192;SDS011;7697;51.630;7.484;2023-11-18T09:03:35;17.93;;;12.23;;
15192;SDS011;7697;51.630;7.484;2023-11-18T09:08:43;16.83;;;12.07;;
15192;SDS011;7697;51.630;7.484;2023-11-18T09:13:46;15.13;;;11.67;;
15192;SDS011;7697;51.630;7.484;2023-11-18T09:18:55;18.23;;;12.43;;
15192;SDS011;7697;51.630;7.484;2023-11-18T09:23:58;16.50;;;12.07;;
15192;SDS011;7697;51.630;7.484;2023-11-18T09:29:00;14.40;;;10.93;;
15192;SDS011;7697;51.630;7.484;2023-11-18T09:34:04;14.37;;;11.33;;
15192;SDS011;7697;51.630;7.484;2023-11-18T09:39:06;14.60;;;10.93;;
15192;SDS011;7697;51.630;7.484;2023-11-18T09:44:08;13.87;;;10.30;;
15192;SDS011;7697;51.630;7.484;2023-11-18T09:49:20;12.53;;;10.07;;
15192;SDS011;7697;51.630;7.484;2023-11-18T09:54:34;13.63;;;10.03;;
15192;SDS011;7697;51.630;7.484;2023-11-18T09:59:46;12.23;;;9.77;;
15192;SDS011;7697;51.630;7.484;2023-11-18T10:04:56;13.57;;;10.37;;
15192;SDS011;7697;51.630;7.484;2023-11-18T10:09:58;11.07;;;9.10;;
15192;SDS011;7697;51.630;7.484;2023-11-18T10:15:02;16.97;;;10.63;;
15192;SDS011;7697;51.630;7.484;2023-11-18T10:20:12;14.00;;;9.63;;
15192;SDS011;7697;51.630;7.484;2023-11-18T10:25:18;15.90;;;10.10;;
15192;SDS011;7697;51.630;7.484;2023-11-18T10:30:25;12.50;;;8.83;;
15192;SDS011;7697;51.630;7.484;2023-11-18T10:35:28;10.77;;;8.60;;
15192;SDS011;7697;51.630;7.484;2023-11-18T10:40:31;10.93;;;8.32;;
15192;SDS011;7697;51.630;7.484;2023-11-18T10:45:35;10.47;;;7.43;;
15192;SDS011;7697;51.630;7.484;2023-11-18T10:50:40;15.97;;;9.97;;
15192;SDS011;7697;51.630;7.484;2023-11-18T10:55:42;12.63;;;8.80;;
15192;SDS011;7697;51.630;7.484;2023-11-18T11:00:47;12.83;;;8.73;;
15192;SDS011;7697;51.630;7.484;2023-11-18T11:05:51;10.27;;;8.20;;
15192;SDS011;7697;51.630;7.484;2023-11-18T11:10:55;10.88;;;8.32;;
15192;SDS011;7697;51.630;7.484;2023-11-18T11:16:00;11.70;;;7.70;;
15192;SDS011;7697;51.630;7.484;2023-11-18T11:21:11;11.60;;;7.68;;
15192;SDS011;7697;51.630;7.484;2023-11-18T11:26:23;10.82;;;7.40;;
15192;SDS011;7697;51.630;7.484;2023-11-18T11:31:40;9.88;;;7.13;;
15192;SDS011;7697;51.630;7.484;2023-11-18T11:36:44;8.45;;;6.90;;
15192;SDS011;7697;51.630;7.484;2023-11-18T11:41:51;8.43;;;6.20;;
15192;SDS011;7697;51.630;7.484;2023-11-18T11:46:54;9.02;;;6.88;;
15192;SDS011;7697;51.630;7.484;2023-11-18T11:52:02;10.68;;;6.88;;
15192;SDS011;7697;51.630;7.484;2023-11-18T11:57:08;8.48;;;6.10;;
15192;SDS011;7697;51.630;7.484;2023-11-18T12:02:14;8.77;;;6.28;;
15192;SDS011;7697;51.630;7.484;2023-11-18T12:07:18;9.38;;;6.32;;
15192;SDS011;7697;51.630;7.484;2023-11-18T12:12:24;9.60;;;6.30;;
15192;SDS011;7697;51.630;7.484;2023-11-18T12:17:27;8.52;;;5.80;;
15192;SDS011;7697;51.630;7.484;2023-11-18T12:28:08;6.50;;;5.40;;
15192;SDS011;7697;51.630;7.484;2023-11-18T12:33:11;6.28;;;4.75;;
15192;SDS011;7697;51.630;7.484;2023-11-18T12:38:30;7.68;;;5.82;;
15192;SDS011;7697;51.630;7.484;2023-11-18T12:44:00;8.65;;;5.50;;
15192;SDS011;7697;51.630;7.484;2023-11-18T12:49:18;8.30;;;4.60;;
15192;SDS011;7697;51.630;7.484;2023-11-18T12:54:25;7.63;;;4.93;;
15192;SDS011;7697;51.630;7.484;2023-11-18T12:59:28;6.30;;;4.03;;
15192;SDS011;7697;51.630;7.484;2023-11-18T13:04:30;9.35;;;5.10;;
15192;SDS011;7697;51.630;7.484;2023-11-18T13:09:35;11.27;;;5.53;;
15192;SDS011;7697;51.630;7.484;2023-11-18T13:14:38;6.45;;;4.20;;
15192;SDS011;7697;51.630;7.484;2023-11-18T13:19:42;9.48;;;4.22;;
15192;SDS011;7697;51.630;7.484;2023-11-18T13:24:46;5.10;;;4.03;;
15192;SDS011;7697;51.630;7.484;2023-11-18T13:29:50;5.47;;;4.40;;
15192;SDS011;7697;51.630;7.484;2023-11-18T13:34:53;6.55;;;5.07;;
15192;SDS011;7697;51.630;7.484;2023-11-18T13:39:57;4.90;;;4.20;;
15192;SDS011;7697;51.630;7.484;2023-11-18T13:45:00;9.55;;;4.60;;
15192;SDS011;7697;51.630;7.484;2023-11-18T13:50:09;6.57;;;4.40;;
15192;SDS011;7697;51.630;7.484;2023-11-18T13:55:15;6.95;;;4.25;;
15192;SDS011;7697;51.630;7.484;2023-11-18T14:00:26;6.50;;;4.10;;
15192;SDS011;7697;51.630;7.484;2023-11-18T14:05:28;7.90;;;4.57;;
15192;SDS011;7697;51.630;7.484;2023-11-18T14:10:35;6.05;;;4.20;;
15192;SDS011;7697;51.630;7.484;2023-11-18T14:15:38;5.65;;;3.88;;
15192;SDS011;7697;51.630;7.484;2023-11-18T14:20:42;4.80;;;4.07;;
15192;SDS011;7697;51.630;7.484;2023-11-18T14:25:46;6.78;;;4.75;;
15192;SDS011;7697;51.630;7.484;2023-11-18T14:30:48;9.45;;;5.32;;
15192;SDS011;7697;51.630;7.484;2023-11-18T14:35:50;5.95;;;4.30;;
15192;SDS011;7697;51.630;7.484;2023-11-18T14:40:55;6.53;;;4.10;;
15192;SDS011;7697;51.630;7.484;2023-11-18T14:45:57;6.90;;;4.18;;
15192;SDS011;7697;51.630;7.484;2023-11-18T14:50:58;4.93;;;3.45;;
15192;SDS011;7697;51.630;7.484;2023-11-18T14:56:02;7.32;;;3.72;;
15192;SDS011;7697;51.630;7.484;2023-11-18T15:01:05;4.88;;;3.53;;
15192;SDS011;7697;51.630;7.484;2023-11-18T15:06:08;5.93;;;4.45;;
15192;SDS011;7697;51.630;7.484;2023-11-18T15:11:13;4.78;;;3.70;;
15192;SDS011;7697;51.630;7.484;2023-11-18T15:16:23;7.55;;;4.50;;
15192;SDS011;7697;51.630;7.484;2023-11-18T15:21:26;5.93;;;4.25;;
15192;SDS011;7697;51.630;7.484;2023-11-18T15:26:31;5.53;;;3.90;;
15192;SDS011;7697;51.630;7.484;2023-11-18T15:31:35;4.90;;;3.88;;
15192;SDS011;7697;51.630;7.484;2023-11-18T15:36:40;4.57;;;3.65;;
15192;SDS011;7697;51.630;7.484;2023-11-18T15:41:44;4.75;;;3.42;;
15192;SDS011;7697;51.630;7.484;2023-11-18T15:46:47;4.40;;;3.45;;
15192;SDS011;7697;51.630;7.484;2023-11-18T15:51:49;6.50;;;4.07;;
15192;SDS011;7697;51.630;7.484;2023-11-18T16:13:11;5.03;;;3.38;;
15192;SDS011;7697;51.630;7.484;2023-11-18T16:18:13;5.20;;;3.08;;
15192;SDS011;7697;51.630;7.484;2023-11-18T16:23:15;6.78;;;3.40;;
15192;SDS011;7697;51.630;7.484;2023-11-18T16:28:19;7.43;;;3.42;;
15192;SDS011;7697;51.630;7.484;2023-11-18T16:33:21;4.35;;;3.05;;
15192;SDS011;7697;51.630;7.484;2023-11-18T16:38:22;5.78;;;2.90;;
15192;SDS011;7697;51.630;7.484;2023-11-18T16:43:25;3.55;;;3.00;;
15192;SDS011;7697;51.630;7.484;2023-11-18T16:48:27;4.55;;;2.50;;
15192;SDS011;7697;51.630;7.484;2023-11-18T16:53:29;4.22;;;2.47;;
15192;SDS011;7697;51.630;7.484;2023-11-18T16:58:32;3.28;;;2.53;;
15192;SDS011;7697;51.630;7.484;2023-11-18T17:03:34;3.10;;;2.20;;
15192;SDS011;7697;51.630;7.484;2023-11-18T17:08:36;3.15;;;2.17;;
15192;SDS011;7697;51.630;7.484;2023-11-18T17:13:39;2.45;;;2.03;;
15192;SDS011;7697;51.630;7.484;2023-11-18T17:18:42;2.28;;;1.92;;
15192;SDS011;7697;51.630;7.484;2023-11-18T17:23:44;3.00;;;1.90;;
15192;SDS011;7697;51.630;7.484;2023-11-18T17:28:47;2.20;;;1.80;;
15192;SDS011;7697;51.630;7.484;2023-11-18T17:33:50;3.88;;;1.80;;
15192;SDS011;7697;51.630;7.484;2023-11-18T17:38:52;2.75;;;2.13;;
15192;SDS011;7697;51.630;7.484;2023-11-18T17:43:56;2.08;;;1.80;;
15192;SDS011;7697;51.630;7.484;2023-11-18T17:48:58;3.15;;;2.20;;
15192;SDS011;7697;51.630;7.484;2023-11-18T17:54:00;2.42;;;1.77;;
15192;SDS011;7697;51.630;7.484;2023-11-18T17:59:03;2.10;;;1.70;;
15192;SDS011;7697;51.630;7.484;2023-11-18T18:04:05;1.88;;;1.67;;
15192;SDS011;7697;51.630;7.484;2023-11-18T18:09:07;2.40;;;1.85;;
15192;SDS011;7697;51.630;7.484;2023-11-18T18:14:12;3.33;;;2.00;;
15192;SDS011;7697;51.630;7.484;2023-11-18T18:19:13;3.78;;;3.42;;
15192;SDS011;7697;51.630;7.484;2023-11-18T18:24:15;2.42;;;1.90;;
15192;SDS011;7697;51.630;7.484;2023-11-18T18:29:18;2.20;;;2.00;;
15192;SDS011;7697;51.630;7.484;2023-11-18T18:34:20;1.70;;;1.60;;
15192;SDS011;7697;51.630;7.484;2023-11-18T18:39:22;1.60;;;1.50;;
15192;SDS011;7697;51.630;7.484;2023-11-18T18:44:26;1.60;;;1.50;;
15192;SDS011;7697;51.630;7.484;2023-11-18T18:49:28;1.25;;;1.13;;
15192;SDS011;7697;51.630;7.484;2023-11-18T18:54:30;1.45;;;1.13;;
15192;SDS011;7697;51.630;7.484;2023-11-18T18:59:34;1.17;;;1.08;;
15192;SDS011;7697;51.630;7.484;2023-11-18T19:04:37;1.40;;;1.08;;
15192;SDS011;7697;51.630;7.484;2023-11-18T19:09:39;1.30;;;1.20;;
15192;SDS011;7697;51.630;7.484;2023-11-18T19:14:43;1.60;;;1.30;;
15192;SDS011;7697;51.630;7.484;2023-11-18T19:19:45;3.75;;;1.63;;
15192;SDS011;7697;51.630;7.484;2023-11-18T19:24:47;2.42;;;1.85;;
15192;SDS011;7697;51.630;7.484;2023-11-18T19:29:52;1.40;;;1.20;;
15192;SDS011;7697;51.630;7.484;2023-11-18T19:34:54;1.65;;;1.42;;
15192;SDS011;7697;51.630;7.484;2023-11-18T19:39:59;1.20;;;1.10;;
15192;SDS011;7697;51.630;7.484;2023-11-18T19:45:07;1.10;;;1.00;;
15192;SDS011;7697;51.630;7.484;2023-11-18T19:50:13;1.00;;;0.90;;
15192;SDS011;7697;51.630;7.484;2023-11-18T19:55:16;1.38;;;1.23;;
15192;SDS011;7697;51.630;7.484;2023-11-18T20:00:20;1.20;;;1.10;;
15192;SDS011;7697;51.630;7.484;2023-11-18T20:05:24;1.50;;;1.30;;
15192;SDS011;7697;51.630;7.484;2023-11-18T20:10:26;1.30;;;1.20;;
15192;SDS011;7697;51.630;7.484;2023-11-18T20:15:30;1.40;;;1.30;;
15192;SDS011;7697;51.630;7.484;2023-11-18T20:20:37;1.23;;;1.13;;
15192;SDS011;7697;51.630;7.484;2023-11-18T20:25:41;1.40;;;1.00;;
15192;SDS011;7697;51.630;7.484;2023-11-18T20:30:45;1.30;;;1.20;;
15192;SDS011;7697;51.630;7.484;2023-11-18T20:35:58;1.38;;;1.02;;
15192;SDS011;7697;51.630;7.484;2023-11-18T20:40:59;1.25;;;1.05;;
15192;SDS011;7697;51.630;7.484;2023-11-18T20:46:04;2.83;;;1.17;;
15192;SDS011;7697;51.630;7.484;2023-11-18T20:51:11;1.52;;;1.30;;
15192;SDS011;7697;51.630;7.484;2023-11-18T20:56:15;1.52;;;1.42;;
15192;SDS011;7697;51.630;7.484;2023-11-18T21:01:22;1.63;;;1.50;;
15192;SDS011;7697;51.630;7.484;2023-11-18T21:06:24;1.48;;;1.30;;
15192;SDS011;7697;51.630;7.484;2023-11-18T21:11:27;2.03;;;1.20;;
15192;SDS011;7697;51.630;7.484;2023-11-18T21:16:32;4.82;;;1.48;;
15192;SDS011;7697;51.630;7.484;2023-11-18T21:21:33;1.90;;;1.30;;
15192;SDS011;7697;51.630;7.484;2023-11-18T21:26:35;1.92;;;1.40;;
15192;SDS011;7697;51.630;7.484;2023-11-18T21:31:39;2.28;;;1.60;;
15192;SDS011;7697;51.630;7.484;2023-11-18T21:36:41;1.63;;;1.50;;
15192;SDS011;7697;51.630;7.484;2023-11-18T21:41:52;1.52;;;1.40;;
15192;SDS011;7697;51.630;7.484;2023-11-18T21:46:56;3.85;;;2.13;;
15192;SDS011;7697;51.630;7.484;2023-11-18T21:51:57;2.67;;;1.77;;
15192;SDS011;7697;51.630;7.484;2023-11-18T21:57:00;3.50;;;2.10;;
15192;SDS011;7697;51.630;7.484;2023-11-18T22:02:04;1.85;;;1.67;;
15192;SDS011;7697;51.630;7.484;2023-11-18T22:07:06;1.45;;;1.33;;
15192;SDS011;7697;51.630;7.484;2023-11-18T22:12:11;1.45;;;1.35;;
15192;SDS011;7697;51.630;7.484;2023-11-18T22:17:14;1.25;;;1.10;;
15192;SDS011;7697;51.630;7.484;2023-11-18T22:22:16;1.70;;;1.60;;
15192;SDS011;7697;51.630;7.484;2023-11-18T22:27:19;1.40;;;1.30;;
15192;SDS011;7697;51.630;7.484;2023-11-18T22:32:22;2.47;;;1.50;;
15192;SDS011;7697;51.630;7.484;2023-11-18T22:37:24;1.60;;;1.50;;
15192;SDS011;7697;51.630;7.484;2023-11-18T22:42:26;1.77;;;1.67;;
15192;SDS011;7697;51.630;7.484;2023-11-18T22:47:35;4.18;;;1.70;;
15192;SDS011;7697;51.630;7.484;2023-11-18T22:52:37;5.68;;;2.75;;
15192;SDS011;7697;51.630;7.484;2023-11-18T22:57:39;5.65;;;2.72;;
15192;SDS011;7697;51.630;7.484;2023-11-18T23:02:44;4.93;;;2.50;;
15192;SDS011;7697;51.630;7.484;2023-11-18T23:07:48;7.97;;;3.38;;
15192;SDS011;7697;51.630;7.484;2023-11-18T23:12:51;4.95;;;2.50;;
15192;SDS011;7697;51.630;7.484;2023-11-18T23:17:56;6.80;;;2.80;;
15192;SDS011;7697;51.630;7.484;2023-11-18T23:23:00;11.15;;;4.15;;
15192;SDS011;7697;51.630;7.484;2023-11-18T23:28:03;4.57;;;2.50;;
15192;SDS011;7697;51.630;7.484;2023-11-18T23:33:09;7.70;;;3.90;;
15192;SDS011;7697;51.630;7.484;2023-11-18T23:38:10;4.07;;;2.30;;
15192;SDS011;7697;51.630;7.484;2023-11-18T23:43:12;3.75;;;2.17;;
15192;SDS011;7697;51.630;7.484;2023-11-18T23:48:15;2.92;;;2.20;;
15192;SDS011;7697;51.630;7.484;2023-11-18T23:53:17;1.65;;;1.40;;
15192;SDS011;7697;51.630;7.484;2023-11-18T23:58:19;2.30;;;1.40;;
